Time;durP1;ratioP1;P1;durP2;ratioP2;P2;SDS_P1;SDS_P2;PMS_P1;PMS_P2;Temp;Humidity;BMP_temperature;BMP_pressure;BME280_temperature;BME280_humidity;BME280_pressure;Samples;Min_cycle;Max_cycle;Signal;HPM_P1;HPM_P2
2023/01/30 00:01:34;;;;;;;119.97;31.08;;;5.80;99.90;;;;;;5053292;28;20271;-78
2023/01/30 00:04:00;;;;;;;127.65;34.45;;;5.90;99.90;;;;;;5052666;28;20041;-76
2023/01/30 00:06:26;;;;;;;123.82;34.15;;;6.00;99.90;;;;;;5053721;28;20424;-76
2023/01/30 00:08:52;;;;;;;118.55;30.00;;;6.10;99.90;;;;;;5052320;28;20127;-75
2023/01/30 00:11:19;;;;;;;126.53;32.67;;;6.00;99.90;;;;;;5035382;28;20124;-73
2023/01/30 00:13:46;;;;;;;117.28;30.67;;;6.10;99.90;;;;;;5086217;28;20056;-74
2023/01/30 00:16:12;;;;;;;113.72;32.75;;;6.10;99.90;;;;;;5053570;28;20045;-75
2023/01/30 00:18:39;;;;;;;102.65;26.83;;;6.20;99.90;;;;;;5054021;28;20060;-75
2023/01/30 00:21:07;;;;;;;110.93;28.50;;;6.30;99.90;;;;;;5052472;28;20426;-77
2023/01/30 00:23:34;;;;;;;110.15;29.00;;;6.30;99.90;;;;;;5052261;28;20057;-76
2023/01/30 00:26:00;;;;;;;112.93;30.48;;;6.40;99.90;;;;;;5052777;28;20052;-76
2023/01/30 00:28:26;;;;;;;128.00;31.00;;;6.30;99.90;;;;;;5052922;28;20053;-76
2023/01/30 00:30:53;;;;;;;109.55;30.02;;;6.40;99.90;;;;;;5053087;28;20497;-75
2023/01/30 00:33:22;;;;;;;102.20;27.02;;;6.40;99.90;;;;;;5054738;28;20060;-75
2023/01/30 00:35:50;;;;;;;113.95;29.38;;;6.50;99.90;;;;;;5053211;28;20091;-75
2023/01/30 00:38:15;;;;;;;116.05;27.52;;;6.50;99.90;;;;;;5053277;28;20083;-74
2023/01/30 00:40:41;;;;;;;108.72;29.15;;;6.50;99.90;;;;;;5053908;28;20061;-75
2023/01/30 00:48:40;;;;;;;95.00;27.08;;;6.60;99.90;;;;;;5053722;28;20140;-75
2023/01/30 00:51:06;;;;;;;104.28;28.00;;;6.70;99.90;;;;;;5053229;28;20124;-75
2023/01/30 00:53:31;;;;;;;116.20;27.83;;;6.70;99.90;;;;;;5069777;28;20377;-76
2023/01/30 00:55:57;;;;;;;112.22;34.33;;;6.70;99.90;;;;;;5053436;28;20111;-76
2023/01/30 00:58:23;;;;;;;78.68;22.50;;;6.70;99.90;;;;;;5035529;28;20449;-75
2023/01/30 01:00:50;;;;;;;98.15;26.17;;;6.70;99.90;;;;;;5069353;28;20366;-76
2023/01/30 01:03:16;;;;;;;114.70;30.87;;;6.80;99.90;;;;;;5052461;28;20053;-75
2023/01/30 01:05:42;;;;;;;92.43;26.25;;;6.80;99.90;;;;;;5051849;28;20357;-75
2023/01/30 01:08:08;;;;;;;103.63;31.23;;;6.70;99.90;;;;;;5052160;28;20056;-75
2023/01/30 01:10:34;;;;;;;102.03;27.27;;;6.80;99.90;;;;;;5051950;28;20056;-75
2023/01/30 01:13:02;;;;;;;79.80;22.23;;;6.70;99.90;;;;;;5053298;28;20482;-75
2023/01/30 01:15:28;;;;;;;90.57;24.33;;;6.80;99.90;;;;;;5053014;28;20067;-77
2023/01/30 01:17:54;;;;;;;89.15;22.98;;;6.70;99.90;;;;;;5052227;28;20131;-74
2023/01/30 01:20:21;;;;;;;99.30;27.25;;;6.80;99.90;;;;;;5053062;28;20537;-74
2023/01/30 01:22:51;;;;;;;91.25;24.40;;;6.80;99.90;;;;;;5055644;28;20044;-74
2023/01/30 01:25:18;;;;;;;83.80;22.92;;;6.70;99.90;;;;;;5057117;28;20079;-75
2023/01/30 01:27:44;;;;;;;97.10;24.30;;;6.70;99.90;;;;;;5056691;28;20048;-76
2023/01/30 01:30:11;;;;;;;83.85;22.60;;;6.60;99.90;;;;;;5056573;28;20037;-77
2023/01/30 01:32:37;;;;;;;102.80;25.95;;;6.50;99.90;;;;;;5055281;28;20378;-76
2023/01/30 01:35:03;;;;;;;85.32;25.08;;;6.50;99.90;;;;;;5055509;28;20098;-76
2023/01/30 01:37:28;;;;;;;86.57;22.92;;;6.50;99.90;;;;;;5056511;28;20144;-75
2023/01/30 01:42:39;;;;;;;82.88;22.88;;;6.50;99.90;;;;;;5056469;28;20250;-75
2023/01/30 01:45:23;;;;;;;93.78;24.85;;;6.50;99.90;;;;;;5038701;28;20041;-76
2023/01/30 01:47:58;;;;;;;78.40;20.80;;;6.50;99.90;;;;;;5072661;28;20041;-77
2023/01/30 01:50:52;;;;;;;83.32;22.52;;;6.60;99.90;;;;;;5056107;28;20041;-77
2023/01/30 01:53:23;;;;;;;81.20;20.65;;;6.50;99.90;;;;;;5056572;28;20409;-77
2023/01/30 01:55:53;;;;;;;75.80;19.98;;;6.50;99.90;;;;;;5056174;28;20053;-77
2023/01/30 01:58:30;;;;;;;76.95;20.40;;;6.50;99.90;;;;;;5056366;28;20438;-76
2023/01/30 02:00:57;;;;;;;62.97;18.13;;;6.50;99.90;;;;;;5056068;28;20048;-77
2023/01/30 02:03:27;;;;;;;60.97;17.38;;;6.50;99.90;;;;;;5055053;28;20041;-77
2023/01/30 02:05:58;;;;;;;70.00;19.17;;;6.50;99.90;;;;;;5055562;28;20489;-76
2023/01/30 02:08:31;;;;;;;68.70;18.58;;;6.50;99.90;;;;;;5056509;28;20433;-75
2023/01/30 02:11:09;;;;;;;56.63;15.48;;;6.50;99.90;;;;;;5056081;28;20049;-76
2023/01/30 02:13:36;;;;;;;59.38;14.45;;;6.50;99.90;;;;;;5054959;28;20045;-78
2023/01/30 02:16:04;;;;;;;58.90;16.30;;;6.50;99.90;;;;;;5055787;28;20132;-78
2023/01/30 02:18:33;;;;;;;50.97;13.88;;;6.60;99.90;;;;;;5038136;28;20049;-76
2023/01/30 02:21:22;;;;;;;54.97;12.88;;;6.60;99.90;;;;;;5088228;28;20053;-77
2023/01/30 02:23:53;;;;;;;42.85;12.23;;;6.60;99.90;;;;;;5050667;28;20135;-77
2023/01/30 02:26:53;;;;;;;39.05;11.90;;;6.60;99.90;;;;;;5054658;28;20080;-77
2023/01/30 02:29:41;;;;;;;43.58;11.65;;;6.60;99.90;;;;;;5055566;28;20366;-78
2023/01/30 02:32:07;;;;;;;33.92;9.25;;;6.60;99.90;;;;;;5054363;28;20064;-76
2023/01/30 02:34:42;;;;;;;38.97;9.82;;;6.60;99.90;;;;;;5054234;28;20477;-78
2023/01/30 02:37:45;;;;;;;32.35;9.40;;;6.60;99.90;;;;;;5054954;28;20083;-78
2023/01/30 02:40:40;;;;;;;37.75;8.27;;;6.60;99.90;;;;;;5054867;28;20479;-77
2023/01/30 02:43:25;;;;;;;29.55;8.98;;;6.60;99.90;;;;;;5055157;28;20053;-75
2023/01/30 02:46:13;;;;;;;49.88;10.07;;;6.60;99.90;;;;;;5055254;28;20041;-76
2023/01/30 02:48:45;;;;;;;40.90;9.43;;;6.60;99.90;;;;;;5055513;28;20052;-76
2023/01/30 02:51:17;;;;;;;38.88;9.55;;;6.50;99.90;;;;;;5054400;28;20044;-75
2023/01/30 02:53:44;;;;;;;33.75;8.70;;;6.50;99.90;;;;;;5054119;28;20170;-75
2023/01/30 02:56:10;;;;;;;32.50;8.90;;;6.50;99.90;;;;;;5037491;28;20052;-75
2023/01/30 02:58:41;;;;;;;44.03;10.00;;;6.50;99.90;;;;;;5053845;28;20041;-76
2023/01/30 03:01:44;;;;;;;46.53;12.38;;;6.50;99.90;;;;;;5053691;28;20051;-77
2023/01/30 03:04:26;;;;;;;40.35;9.90;;;6.50;99.90;;;;;;5053598;28;20057;-75
2023/01/30 03:07:31;;;;;;;52.30;10.80;;;6.50;99.90;;;;;;5088266;28;20182;-77
2023/01/30 03:10:00;;;;;;;42.15;10.77;;;6.50;99.90;;;;;;5037127;28;20079;-75
2023/01/30 03:12:26;;;;;;;37.90;9.57;;;6.50;99.90;;;;;;5054777;28;20060;-78
2023/01/30 03:14:57;;;;;;;41.30;9.45;;;6.50;99.90;;;;;;5053679;28;20041;-76
2023/01/30 03:17:25;;;;;;;40.00;9.13;;;6.50;99.90;;;;;;5054245;28;20123;-78
2023/01/30 03:19:54;;;;;;;37.25;8.95;;;6.50;99.90;;;;;;5037623;28;20516;-75
2023/01/30 03:22:20;;;;;;;49.13;9.43;;;6.60;99.90;;;;;;5053585;28;20056;-77
2023/01/30 03:24:47;;;;;;;47.50;10.57;;;6.50;99.90;;;;;;5054489;28;20048;-76
2023/01/30 03:27:13;;;;;;;40.60;8.70;;;6.50;99.90;;;;;;5053345;28;20380;-78
2023/01/30 03:29:39;;;;;;;36.00;7.95;;;6.50;99.90;;;;;;5052943;28;20084;-76
2023/01/30 03:32:05;;;;;;;48.87;8.47;;;6.50;99.90;;;;;;5052558;28;20056;-72
2023/01/30 03:34:31;;;;;;;39.20;7.75;;;6.60;99.90;;;;;;5053077;28;20413;-72
2023/01/30 03:36:57;;;;;;;37.65;6.85;;;6.50;99.90;;;;;;5036366;28;20056;-72
2023/01/30 03:39:24;;;;;;;36.67;7.60;;;6.60;99.90;;;;;;5052460;28;20049;-72
2023/01/30 03:41:50;;;;;;;42.90;7.90;;;6.60;99.90;;;;;;5052736;28;20489;-73
2023/01/30 03:44:16;;;;;;;41.15;7.40;;;6.60;99.90;;;;;;5051958;28;20469;-71
2023/01/30 03:46:42;;;;;;;40.92;7.90;;;6.60;99.90;;;;;;5052850;28;20128;-71
2023/01/30 03:49:08;;;;;;;46.17;7.72;;;6.60;99.90;;;;;;5053209;28;20045;-71
2023/01/30 03:51:33;;;;;;;50.67;10.40;;;6.60;99.90;;;;;;5053266;28;20094;-71
2023/01/30 03:53:59;;;;;;;42.42;8.35;;;6.60;99.90;;;;;;5052510;28;20048;-70
2023/01/30 03:56:25;;;;;;;46.35;8.80;;;6.60;99.90;;;;;;5086344;28;20045;-70
2023/01/30 03:58:51;;;;;;;47.95;9.70;;;6.60;99.90;;;;;;5086253;28;20137;-73
2023/01/30 04:01:17;;;;;;;43.72;7.13;;;6.60;99.90;;;;;;5053506;28;20143;-72
2023/01/30 04:03:42;;;;;;;50.33;9.43;;;6.70;99.90;;;;;;5052824;28;20056;-71
2023/01/30 04:06:08;;;;;;;45.20;7.70;;;6.60;99.90;;;;;;5052283;28;20354;-71
2023/01/30 04:08:34;;;;;;;51.05;7.72;;;6.60;99.90;;;;;;5053378;28;20103;-71
2023/01/30 04:11:00;;;;;;;43.35;7.35;;;6.70;99.90;;;;;;5052436;28;20049;-73
2023/01/30 04:13:25;;;;;;;37.63;7.00;;;6.60;99.90;;;;;;5053323;28;20072;-73
2023/01/30 04:15:51;;;;;;;40.95;8.02;;;6.60;99.90;;;;;;5069008;28;20045;-73
2023/01/30 04:18:17;;;;;;;50.80;7.15;;;6.50;99.90;;;;;;5052919;28;20137;-72
2023/01/30 04:20:43;;;;;;;45.42;7.22;;;6.60;99.90;;;;;;5053405;28;20524;-74
2023/01/30 04:23:08;;;;;;;43.70;7.30;;;6.50;99.90;;;;;;5053473;28;20044;-72
2023/01/30 04:25:34;;;;;;;49.10;6.97;;;6.50;99.90;;;;;;5053159;28;20390;-72
2023/01/30 04:28:00;;;;;;;45.88;6.78;;;6.60;99.90;;;;;;5035237;28;20485;-73
2023/01/30 04:30:25;;;;;;;48.38;8.32;;;6.60;99.90;;;;;;5051904;28;20040;-73
2023/01/30 04:32:51;;;;;;;41.83;5.97;;;6.60;99.90;;;;;;5051989;28;20060;-73
2023/01/30 04:35:17;;;;;;;33.97;6.18;;;6.60;99.90;;;;;;5053143;28;20045;-72
2023/01/30 04:37:43;;;;;;;39.53;6.72;;;6.60;99.90;;;;;;5068470;28;20524;-72
2023/01/30 04:40:09;;;;;;;36.90;6.57;;;6.60;99.90;;;;;;5053344;28;20053;-72
2023/01/30 04:42:35;;;;;;;47.50;6.03;;;6.60;99.90;;;;;;5052160;28;20512;-72
2023/01/30 04:45:00;;;;;;;38.75;6.07;;;6.50;99.90;;;;;;5051798;28;20049;-72
2023/01/30 04:47:26;;;;;;;34.83;5.50;;;6.50;99.90;;;;;;5052272;28;20053;-73
2023/01/30 04:49:52;;;;;;;42.28;6.45;;;6.50;99.90;;;;;;5052305;28;20049;-73
2023/01/30 04:52:17;;;;;;;45.60;6.55;;;6.50;99.90;;;;;;5051954;28;20103;-71
2023/01/30 04:54:43;;;;;;;38.78;5.00;;;6.50;99.90;;;;;;5053421;28;20049;-72
2023/01/30 04:57:09;;;;;;;39.78;5.25;;;6.50;99.90;;;;;;5056189;28;20075;-73
2023/01/30 04:59:35;;;;;;;36.83;5.13;;;6.40;99.90;;;;;;5056944;28;20045;-73
2023/01/30 05:02:00;;;;;;;36.28;6.05;;;6.30;99.90;;;;;;5055867;28;20048;-73
2023/01/30 05:04:26;;;;;;;33.55;5.10;;;6.30;99.90;;;;;;5055722;28;20136;-72
2023/01/30 05:06:52;;;;;;;26.48;3.25;;;6.20;99.90;;;;;;5056874;28;20045;-72
2023/01/30 05:09:17;;;;;;;31.13;5.07;;;6.20;99.90;;;;;;5057266;28;20048;-72
2023/01/30 05:11:43;;;;;;;38.17;4.43;;;6.20;99.90;;;;;;5056634;28;20389;-72
2023/01/30 05:14:09;;;;;;;39.67;4.85;;;6.20;99.90;;;;;;5055377;28;20048;-73
2023/01/30 05:16:34;;;;;;;25.77;4.05;;;6.20;99.90;;;;;;5055962;28;20389;-73
2023/01/30 05:19:00;;;;;;;41.35;4.25;;;6.10;99.90;;;;;;5055623;28;20079;-72
2023/01/30 05:21:27;;;;;;;33.97;4.28;;;6.10;99.90;;;;;;5072991;28;20103;-72
2023/01/30 05:23:54;;;;;;;37.65;4.15;;;6.10;99.90;;;;;;5088939;28;20102;-73
2023/01/30 05:26:20;;;;;;;29.20;4.00;;;6.00;99.90;;;;;;5056064;28;20067;-73
2023/01/30 05:28:56;;;;;;;33.50;4.07;;;5.90;99.90;;;;;;5089881;28;20049;-74
2023/01/30 05:31:22;;;;;;;36.53;5.23;;;5.90;99.90;;;;;;5088685;28;20041;-73
2023/01/30 05:33:50;;;;;;;46.08;7.10;;;5.80;99.90;;;;;;5054730;28;20076;-72
2023/01/30 05:36:17;;;;;;;39.72;6.10;;;5.80;99.90;;;;;;5056236;28;20068;-73
2023/01/30 05:38:44;;;;;;;53.40;5.50;;;5.80;99.90;;;;;;5055687;28;20041;-73
2023/01/30 05:41:11;;;;;;;51.58;5.03;;;5.70;99.90;;;;;;5055959;28;20053;-73
2023/01/30 05:43:37;;;;;;;44.65;5.43;;;5.80;99.90;;;;;;5055022;28;20051;-73
2023/01/30 05:46:05;;;;;;;43.25;5.05;;;5.60;99.90;;;;;;5038122;28;20036;-73
2023/01/30 05:48:32;;;;;;;51.97;5.22;;;5.70;99.90;;;;;;5054971;28;20049;-73
2023/01/30 05:50:59;;;;;;;32.00;3.45;;;5.60;99.90;;;;;;5054936;28;20041;-73
2023/01/30 05:53:27;;;;;;;36.80;4.20;;;5.60;99.90;;;;;;5055952;28;20396;-72
2023/01/30 05:55:58;;;;;;;33.70;4.38;;;5.50;99.90;;;;;;5088175;28;20060;-72
2023/01/30 05:58:24;;;;;;;44.78;3.70;;;5.40;99.90;;;;;;5071365;28;20052;-73
2023/01/30 06:00:50;;;;;;;42.90;4.57;;;5.40;99.90;;;;;;5038297;28;20045;-73
2023/01/30 06:03:16;;;;;;;32.15;3.30;;;5.40;99.90;;;;;;5054749;28;20049;-72
2023/01/30 06:05:42;;;;;;;40.97;4.80;;;5.40;99.90;;;;;;5088308;28;20132;-74
2023/01/30 06:08:08;;;;;;;38.92;3.92;;;5.40;99.90;;;;;;5054031;28;20492;-73
2023/01/30 06:10:34;;;;;;;32.10;2.97;;;5.40;99.90;;;;;;5055355;28;20120;-72
2023/01/30 06:13:00;;;;;;;51.78;5.35;;;5.40;99.90;;;;;;5055839;28;20045;-71
2023/01/30 06:15:26;;;;;;;34.25;3.33;;;5.40;99.90;;;;;;5053975;28;20390;-73
2023/01/30 06:17:51;;;;;;;45.05;4.40;;;5.40;99.90;;;;;;5054509;28;20045;-72
2023/01/30 06:20:17;;;;;;;37.17;3.55;;;5.40;99.90;;;;;;5054299;28;20041;-72
2023/01/30 06:22:43;;;;;;;46.13;5.45;;;5.40;99.90;;;;;;5055148;28;20099;-72
2023/01/30 06:25:09;;;;;;;47.95;3.85;;;5.40;99.90;;;;;;5088008;28;20048;-72
2023/01/30 06:27:35;;;;;;;37.00;3.17;;;5.30;99.90;;;;;;5055380;28;20040;-73
2023/01/30 06:30:01;;;;;;;47.35;3.80;;;5.30;99.90;;;;;;5038397;28;20060;-72
2023/01/30 06:32:27;;;;;;;36.80;3.95;;;5.30;99.90;;;;;;5055342;28;20171;-73
2023/01/30 06:34:52;;;;;;;38.85;3.20;;;5.30;99.90;;;;;;5037648;28;20135;-73
2023/01/30 06:37:18;;;;;;;35.17;2.72;;;5.30;99.90;;;;;;5070748;28;20547;-71
2023/01/30 06:39:44;;;;;;;42.83;3.40;;;5.30;99.90;;;;;;5055145;28;20053;-73
2023/01/30 06:42:10;;;;;;;33.60;3.35;;;5.30;99.90;;;;;;5054240;28;20056;-72
2023/01/30 06:44:35;;;;;;;43.70;3.28;;;5.30;99.90;;;;;;5054950;28;20060;-72
2023/01/30 06:47:01;;;;;;;45.17;4.93;;;5.30;99.90;;;;;;5055124;28;20051;-73
2023/01/30 06:49:27;;;;;;;41.08;4.15;;;5.40;99.90;;;;;;5087564;28;20120;-72
2023/01/30 06:51:52;;;;;;;42.33;3.63;;;5.50;99.90;;;;;;5053655;28;20416;-73
2023/01/30 06:54:18;;;;;;;37.83;4.20;;;5.50;99.90;;;;;;5055344;28;20103;-72
2023/01/30 06:56:44;;;;;;;38.53;4.43;;;5.60;99.90;;;;;;5054071;28;20541;-72
2023/01/30 06:59:10;;;;;;;39.28;3.92;;;5.60;99.90;;;;;;5054746;28;20087;-74
2023/01/30 07:01:36;;;;;;;37.03;3.63;;;5.70;99.90;;;;;;5053436;28;20428;-72
2023/01/30 07:04:02;;;;;;;40.58;3.53;;;5.60;99.90;;;;;;5054768;28;20178;-71
2023/01/30 07:06:28;;;;;;;38.95;3.53;;;5.70;99.90;;;;;;5053381;28;20067;-72
2023/01/30 07:08:57;;;;;;;46.33;3.45;;;5.70;99.90;;;;;;5053903;28;20048;-73
2023/01/30 07:11:23;;;;;;;42.00;3.70;;;5.70;99.90;;;;;;5053302;28;20429;-73
2023/01/30 07:13:49;;;;;;;36.33;4.13;;;5.70;99.90;;;;;;5053332;28;20055;-72
2023/01/30 07:16:15;;;;;;;47.20;3.85;;;5.70;99.90;;;;;;5053415;28;20056;-72
2023/01/30 07:18:40;;;;;;;37.95;3.53;;;5.70;99.90;;;;;;5054236;28;20401;-73
2023/01/30 07:21:06;;;;;;;47.90;3.55;;;5.60;99.90;;;;;;5053128;28;20037;-73
2023/01/30 07:23:32;;;;;;;38.85;3.40;;;5.60;99.90;;;;;;5054212;28;20041;-73
2023/01/30 07:25:58;;;;;;;45.80;5.70;;;5.70;99.90;;;;;;5054261;28;20045;-73
2023/01/30 07:28:23;;;;;;;33.63;2.53;;;5.70;99.90;;;;;;5052988;28;20052;-72
2023/01/30 07:30:51;;;;;;;33.30;2.88;;;5.70;99.90;;;;;;5036972;28;20049;-72
2023/01/30 07:33:18;;;;;;;41.00;4.00;;;5.70;99.90;;;;;;5037285;28;20056;-72
2023/01/30 07:35:44;;;;;;;53.78;4.63;;;5.70;99.90;;;;;;5054097;28;20055;-72
2023/01/30 07:38:10;;;;;;;54.35;4.07;;;5.60;99.90;;;;;;5052951;28;20291;-74
2023/01/30 07:40:35;;;;;;;48.83;2.85;;;5.60;99.90;;;;;;5086146;28;20107;-72
2023/01/30 07:43:10;;;;;;;45.00;3.55;;;5.60;99.90;;;;;;5053680;28;20112;-73
2023/01/30 07:45:39;;;;;;;47.53;3.10;;;5.60;99.90;;;;;;5054609;28;20134;-73
2023/01/30 07:48:05;;;;;;;51.10;4.43;;;5.60;99.90;;;;;;5054615;28;20047;-73
2023/01/30 07:50:31;;;;;;;55.20;4.60;;;5.60;99.90;;;;;;5053610;28;20535;-73
2023/01/30 07:52:57;;;;;;;37.90;4.47;;;5.60;99.90;;;;;;5052568;28;20044;-72
2023/01/30 07:55:23;;;;;;;40.92;2.38;;;5.70;99.90;;;;;;5052435;28;20123;-73
2023/01/30 07:57:49;;;;;;;35.63;2.88;;;5.70;99.90;;;;;;5053052;28;20045;-72
2023/01/30 08:00:15;;;;;;;36.70;2.15;;;5.70;99.90;;;;;;5069393;28;20048;-72
2023/01/30 08:02:41;;;;;;;44.63;3.17;;;5.70;99.90;;;;;;5035823;28;20091;-72
2023/01/30 08:05:07;;;;;;;46.35;2.72;;;5.70;99.90;;;;;;5052356;28;20091;-72
2023/01/30 08:07:33;;;;;;;50.10;4.95;;;5.70;99.90;;;;;;5053442;28;20060;-73
2023/01/30 08:09:58;;;;;;;47.90;3.60;;;5.80;99.90;;;;;;5052913;28;20045;-71
2023/01/30 08:12:24;;;;;;;41.38;4.00;;;5.80;99.90;;;;;;5035641;28;20102;-73
2023/01/30 08:14:50;;;;;;;42.80;2.78;;;5.80;99.90;;;;;;5053537;28;20273;-72
2023/01/30 08:17:15;;;;;;;49.38;4.68;;;5.70;99.90;;;;;;5054084;28;20158;-72
2023/01/30 08:19:41;;;;;;;41.33;3.20;;;5.80;99.90;;;;;;5054331;28;20051;-73
2023/01/30 08:22:07;;;;;;;55.42;4.13;;;5.90;99.90;;;;;;5053039;28;20071;-71
2023/01/30 08:24:33;;;;;;;56.00;5.82;;;5.90;99.90;;;;;;5053298;28;20037;-73
2023/01/30 08:26:59;;;;;;;53.05;2.35;;;5.90;99.90;;;;;;5053163;28;20049;-73
2023/01/30 08:29:25;;;;;;;45.58;3.72;;;6.00;99.90;;;;;;5052554;28;20115;-73
2023/01/30 08:31:55;;;;;;;41.47;3.67;;;6.10;99.90;;;;;;5035161;28;20044;-72
2023/01/30 08:34:21;;;;;;;65.93;4.05;;;6.10;99.90;;;;;;5036289;28;20111;-73
2023/01/30 08:36:47;;;;;;;45.83;4.82;;;6.10;99.90;;;;;;5053287;28;20061;-72
2023/01/30 08:39:13;;;;;;;49.08;2.80;;;6.20;99.90;;;;;;5051889;28;20106;-72
2023/01/30 08:41:41;;;;;;;50.20;3.65;;;6.20;99.90;;;;;;5053370;28;20049;-72
2023/01/30 08:44:08;;;;;;;53.45;4.22;;;6.20;99.90;;;;;;5052015;28;20107;-73
2023/01/30 08:46:34;;;;;;;58.33;3.67;;;6.20;99.90;;;;;;5051771;28;20049;-73
2023/01/30 08:49:00;;;;;;;51.80;3.17;;;6.20;99.90;;;;;;5036120;28;20045;-72
2023/01/30 08:51:25;;;;;;;49.55;3.33;;;6.20;99.90;;;;;;5051615;28;20045;-73
2023/01/30 08:53:51;;;;;;;53.25;3.83;;;6.20;99.90;;;;;;5068671;28;20045;-72
2023/01/30 08:56:17;;;;;;;52.15;3.88;;;6.20;99.90;;;;;;5052875;28;20041;-72
2023/01/30 08:58:45;;;;;;;56.65;4.07;;;6.20;99.90;;;;;;5034733;28;20215;-72
2023/01/30 09:01:11;;;;;;;54.50;4.28;;;6.30;99.90;;;;;;5052749;28;20045;-73
2023/01/30 09:03:37;;;;;;;38.43;4.23;;;6.30;99.90;;;;;;5051575;28;20063;-72
2023/01/30 09:06:04;;;;;;;59.67;4.18;;;6.30;99.90;;;;;;5052028;28;20296;-72
2023/01/30 09:08:30;;;;;;;43.83;4.25;;;6.30;99.90;;;;;;5051548;28;20076;-74
2023/01/30 09:11:04;;;;;;;58.33;4.47;;;6.30;99.90;;;;;;5018640;28;20084;-73
2023/01/30 09:13:30;;;;;;;50.13;5.13;;;6.30;99.90;;;;;;5052800;28;20041;-73
2023/01/30 09:15:57;;;;;;;41.97;3.90;;;6.40;99.90;;;;;;5051684;28;20049;-73
2023/01/30 09:18:23;;;;;;;37.97;3.92;;;6.50;99.90;;;;;;5052012;28;20041;-73
2023/01/30 09:20:49;;;;;;;51.83;4.43;;;6.50;99.90;;;;;;5052629;28;20046;-73
2023/01/30 09:23:15;;;;;;;48.65;5.25;;;6.50;99.90;;;;;;5052281;28;20099;-74
2023/01/30 09:25:44;;;;;;;54.90;4.50;;;6.50;99.90;;;;;;5019585;28;20056;-72
2023/01/30 09:28:10;;;;;;;41.58;5.57;;;6.60;99.90;;;;;;5052620;28;20056;-73
2023/01/30 09:30:35;;;;;;;39.30;3.95;;;6.70;99.90;;;;;;5051382;28;20397;-73
2023/01/30 09:33:01;;;;;;;47.08;4.00;;;6.60;99.90;;;;;;5052671;28;20131;-72
2023/01/30 09:35:27;;;;;;;49.88;5.22;;;6.70;99.90;;;;;;5084998;28;20056;-73
2023/01/30 09:37:53;;;;;;;46.70;3.72;;;6.70;99.90;;;;;;5051702;28;20068;-72
2023/01/30 09:40:27;;;;;;;48.08;3.47;;;6.80;99.90;;;;;;5051150;28;20057;-73
2023/01/30 09:43:09;;;;;;;56.20;5.30;;;6.80;99.90;;;;;;5054411;28;20370;-72
2023/01/30 09:45:44;;;;;;;51.40;4.22;;;6.80;99.90;;;;;;5056076;28;20106;-73
2023/01/30 09:48:30;;;;;;;51.90;4.50;;;6.90;99.90;;;;;;5039077;28;20056;-73
2023/01/30 09:51:19;;;;;;;48.55;4.20;;;7.10;99.90;;;;;;5088417;28;20052;-72
2023/01/30 09:54:02;;;;;;;40.20;2.65;;;7.10;99.90;;;;;;5054977;28;20052;-74
2023/01/30 09:56:28;;;;;;;41.80;4.18;;;7.20;99.90;;;;;;5056319;28;20053;-73
2023/01/30 09:59:00;;;;;;;47.70;4.00;;;7.30;99.90;;;;;;5089158;28;20048;-72
2023/01/30 10:01:44;;;;;;;43.70;3.25;;;7.30;99.90;;;;;;5055944;28;20049;-73
2023/01/30 10:04:42;;;;;;;48.17;3.47;;;7.40;99.90;;;;;;5056350;28;20095;-73
2023/01/30 10:07:23;;;;;;;50.95;4.15;;;7.40;99.90;;;;;;5033177;28;20068;-73
2023/01/30 10:10:00;;;;;;;47.70;4.78;;;7.30;99.90;;;;;;5055956;28;20087;-71
2023/01/30 10:12:25;;;;;;;54.42;4.75;;;7.50;99.90;;;;;;5054564;28;20045;-73
2023/01/30 10:15:24;;;;;;;62.58;6.38;;;7.40;99.90;;;;;;5055264;28;20053;-73
2023/01/30 10:18:20;;;;;;;50.75;5.05;;;7.40;99.90;;;;;;5079311;28;20497;-72
2023/01/30 10:21:33;;;;;;;61.75;5.40;;;7.50;99.90;;;;;;5055156;28;20482;-72
2023/01/30 10:24:20;;;;;;;50.83;4.07;;;7.50;99.90;;;;;;5035075;28;20061;-72
2023/01/30 10:26:47;;;;;;;55.25;3.88;;;7.50;99.90;;;;;;5056051;28;20056;-72
2023/01/30 10:29:20;;;;;;;57.25;5.03;;;7.50;99.90;;;;;;5054053;28;20045;-73
2023/01/30 10:31:50;;;;;;;56.47;3.88;;;7.50;99.90;;;;;;5038203;28;20041;-73
2023/01/30 10:34:25;;;;;;;53.47;5.05;;;7.50;99.90;;;;;;5054192;28;20481;-73
2023/01/30 10:37:00;;;;;;;55.78;4.68;;;7.60;99.90;;;;;;5037861;28;20136;-72
2023/01/30 10:39:48;;;;;;;50.17;4.13;;;7.60;99.90;;;;;;5087253;28;20056;-72
2023/01/30 10:42:23;;;;;;;46.88;4.07;;;7.70;99.90;;;;;;5037741;28;20041;-72
2023/01/30 10:44:49;;;;;;;41.28;4.32;;;7.80;99.90;;;;;;5054299;28;20154;-74
2023/01/30 10:47:24;;;;;;;48.78;3.83;;;7.80;99.90;;;;;;5037557;28;20061;-73
2023/01/30 10:50:09;;;;;;;73.35;6.15;;;7.80;99.90;;;;;;5055051;28;20482;-72
2023/01/30 10:52:56;;;;;;;50.97;4.63;;;7.80;99.90;;;;;;5087507;28;20132;-73
2023/01/30 10:55:22;;;;;;;54.35;3.88;;;7.90;99.90;;;;;;5054249;28;20049;-72
2023/01/30 10:58:31;;;;;;;61.72;4.50;;;7.90;99.90;;;;;;5036694;28;20049;-72
2023/01/30 11:01:23;;;;;;;42.22;4.78;;;7.90;99.90;;;;;;5074036;28;20107;-72
2023/01/30 11:04:06;;;;;;;55.85;4.30;;;7.90;99.90;;;;;;5054985;28;20041;-72
2023/01/30 11:06:33;;;;;;;60.75;4.90;;;7.90;99.90;;;;;;5053741;28;20052;-72
2023/01/30 11:08:59;;;;;;;45.83;5.28;;;7.80;99.90;;;;;;5054456;28;20056;-71
2023/01/30 11:11:28;;;;;;;52.88;4.53;;;7.90;99.90;;;;;;5036555;28;20045;-74
2023/01/30 11:14:02;;;;;;;66.65;4.22;;;7.80;99.90;;;;;;5054397;28;20044;-72
2023/01/30 11:16:30;;;;;;;51.53;5.07;;;7.90;99.90;;;;;;5054375;28;20080;-73
2023/01/30 11:18:58;;;;;;;;;;;7.80;99.90;;;;;;5037090;28;20048;-71
2023/01/30 11:21:31;;;;;;;55.42;3.85;;;7.90;99.90;;;;;;5037221;28;19970;-71
2023/01/30 11:24:04;;;;;;;47.05;2.83;;;7.90;99.90;;;;;;5054369;28;20389;-73
2023/01/30 11:26:33;;;;;;;57.55;4.88;;;8.00;99.90;;;;;;5070023;28;20060;-73
2023/01/30 11:29:36;;;;;;;53.45;4.40;;;8.10;99.90;;;;;;5086756;28;20103;-73
2023/01/30 11:32:05;;;;;;;53.45;3.45;;;8.10;99.90;;;;;;5070106;28;20152;-72
2023/01/30 11:34:31;;;;;;;46.72;5.53;;;8.10;99.90;;;;;;5053954;28;20049;-72
2023/01/30 11:37:13;;;;;;;54.53;4.13;;;8.10;99.90;;;;;;5020668;28;20056;-73
2023/01/30 11:39:50;;;;;;;62.97;5.07;;;8.10;99.90;;;;;;5036250;28;20413;-72
2023/01/30 11:42:19;;;;;;;56.70;4.90;;;8.00;99.90;;;;;;5052881;28;20059;-72
2023/01/30 11:44:44;;;;;;;51.35;5.35;;;8.00;99.90;;;;;;5036050;28;20056;-72
2023/01/30 11:47:25;;;;;;;90.75;8.88;;;7.90;99.90;;;;;;5052506;28;20045;-69
2023/01/30 11:49:55;;;;;;;50.42;5.10;;;7.20;99.90;;;;;;5053470;28;20579;-71
2023/01/30 11:52:48;;;;;;;85.50;7.75;;;6.80;99.90;;;;;;5054082;28;20098;-69
2023/01/30 11:55:17;;;;;;;66.90;6.07;;;6.20;99.90;;;;;;5049632;28;20053;-70
2023/01/30 11:57:54;;;;;;;75.00;7.30;;;6.20;99.90;;;;;;5053269;28;20460;-70
2023/01/30 12:00:23;;;;;;;71.07;5.72;;;6.30;99.90;;;;;;5052916;28;20048;-71
2023/01/30 12:02:51;;;;;;;56.95;5.47;;;6.30;99.90;;;;;;5036734;28;20053;-70
2023/01/30 12:05:43;;;;;;;73.05;6.72;;;6.30;99.90;;;;;;5035156;28;20049;-71
2023/01/30 12:08:19;;;;;;;74.95;5.95;;;6.40;99.90;;;;;;5042570;28;20473;-71
2023/01/30 12:10:54;;;;;;;77.60;5.85;;;6.50;99.90;;;;;;5036079;28;20389;-70
2023/01/30 12:13:42;;;;;;;84.90;5.53;;;6.60;99.90;;;;;;5054265;28;20078;-71
2023/01/30 12:16:14;;;;;;;64.90;4.40;;;6.60;99.90;;;;;;5052779;28;20064;-69
2023/01/30 12:19:04;;;;;;;61.97;5.03;;;6.50;99.90;;;;;;5053171;28;20119;-68
2023/01/30 12:21:58;;;;;;;25.08;2.42;;;6.40;99.90;;;;;;5054074;28;20132;-71
2023/01/30 12:24:33;;;;;;;25.58;2.03;;;5.80;99.90;;;;;;5054127;28;20370;-71
2023/01/30 12:27:16;;;;;;;25.77;2.80;;;5.90;99.90;;;;;;5035836;28;20488;-71
2023/01/30 12:29:59;;;;;;;27.23;2.40;;;5.80;99.90;;;;;;5052504;28;20056;-73
2023/01/30 12:32:27;;;;;;;25.80;1.83;;;6.00;99.90;;;;;;5051901;28;20037;-71
2023/01/30 12:34:53;;;;;;;37.15;2.95;;;6.10;99.90;;;;;;5053033;28;20516;-72
2023/01/30 12:37:28;;;;;;;60.78;4.35;;;6.40;99.90;;;;;;5052030;28;20052;-72
2023/01/30 12:40:27;;;;;;;41.20;5.25;;;6.00;99.90;;;;;;5051709;28;20049;-72
2023/01/30 12:43:30;;;;;;;67.00;4.57;;;6.20;99.90;;;;;;5051858;28;20090;-72
2023/01/30 12:46:21;;;;;;;59.15;5.90;;;6.30;99.90;;;;;;5052930;28;20512;-72
2023/01/30 12:49:09;;;;;;;47.70;4.88;;;6.60;99.90;;;;;;5068956;28;20064;-73
2023/01/30 12:52:07;;;;;;;43.90;4.50;;;6.60;99.90;;;;;;5052788;28;20366;-71
2023/01/30 12:55:01;;;;;;;42.55;2.75;;;6.60;99.90;;;;;;5052812;28;20067;-72
2023/01/30 12:57:52;;;;;;;45.22;3.90;;;6.70;99.90;;;;;;5052746;28;20049;-72
2023/01/30 13:00:38;;;;;;;51.63;3.47;;;6.90;99.90;;;;;;5053194;28;20045;-73
2023/01/30 13:03:13;;;;;;;38.33;2.50;;;7.10;99.90;;;;;;5052883;28;20053;-72
2023/01/30 13:06:09;;;;;;;34.70;2.88;;;7.00;99.90;;;;;;5052415;28;20512;-74
2023/01/30 13:08:41;;;;;;;35.40;2.80;;;7.00;99.90;;;;;;5052167;28;20141;-73
2023/01/30 13:11:13;;;;;;;35.03;2.42;;;7.00;99.90;;;;;;5051709;28;20072;-69